Ottumwa Regional Airport
KOTM : now visible

Airfield :











YOU CAN JOIN US ON...

 
LOGIN :

Register | Disclaimer

   EN    FR    IT 

 









Legend :    VFR   Marginal VFR   IFR   Intensive IFR   Very Intensive IFR
Visi :
Ceiling :
>= 8 km
>= 3000ft
5 to 8 km
1000 to 3000 ft
1500m to 5 km
500 to 1000 ft
800 to 1500m
200 to 500 ft
< 800m
< 200 ft
Symbols :   Thunderstorms  Fog  Heavy snow  Heavy precipitations  Wind > 20 kt






- Airport Elevation : 845 ft
- IATA code : OTM


KOTM - Ottumwa Regional

CURRENT METAR :
  • 272353Z AUTO 02007KT 10SM CLR 23/09 A2989 RMK AO2 SLP117 T02330089 10244 20200 56007

EXPIRED METARs :
  • 272253Z AUTO 34009G15KT 10SM CLR 24/11 A2989 RMK AO2 SLP118 T02390106
  • 272153Z AUTO 33009G18KT 10SM CLR 24/11 A2989 RMK AO2 SLP119 T02390106

TAF KOTM
Valid from the 28 at 00:00 until the 29 at 00:00 UTC


272323Z 2800/2824 34007G11KT P6SM SKC
FM280100 03004KT P6SM FEW250
FM280400 17004KT P6SM FEW250
FM281200 17008G16KT P6SM FEW200
FM281500 17015G20KT P6SM FEW250
KZAU FIR / North America



MET'MAP, your aeronautical weather chart ! - Copyright ORBIFLY December 2007 - Disclaimer

ORBIFLY MET'MAP TEAM :

Programming & Development : Alexandra Zaïnal
Original concept : Baudouin d'Aumeries
Technical & hardware support : Manuel Goepfert
Assistance : Marc-Olivier Méhu

Contact : metmap@orbifly.com




SOURCES & CREDITS :

   NOAA       Earth
Advisory